Archival Weather

Sydney Intl

Sydney, Australia (YSSY)

Report from: Sunday, March 19, 2023 7:38 PM AEDT
Current time: Saturday, June 22, 2024 11:08 AM AEST

Current weather – Weather history – Daily summaries
Weather forecast

Present weatherLight rain showers
Temperature23.0°C (73.4°F)
Dew point22.0°C (71.6°F)
Winds 13 kts (6.7 m/s, 15 mph) South (170°)
Visibility2296.6 ft. (700 m)
Clouds Ceiling: Overcast 100 ft. (30 m)
Altimeter30.00 in.Hg (1016 mB)
Relative humidity94 %
Density altitude1,193 ft. (364 m)
Remarks Fully automated report
Special weather observation
Flight conditions Low Instrument Meteorological Conditions
Raw dataSPAU31 KWBC 190843 SPECI YSSY 190838Z AUTO 17013KT 0700 -SHRA OVC001 23/22 Q1016 RF00/0/000/0
An error has occurred. This application may no longer respond until reloaded. Reload 🗙